createdAt,value
2019-05-02T00:00:36.702Z,13.80
2019-05-02T00:02:44.132Z,13.33
2019-05-02T00:04:55.560Z,13.20
2019-05-02T00:07:07.801Z,13.73
2019-05-02T00:09:14.451Z,11.83
2019-05-02T00:11:20.932Z,12.40
2019-05-02T00:13:30.055Z,13.30
2019-05-02T00:15:38.244Z,13.40
2019-05-02T00:17:45.208Z,15.10
2019-05-02T00:19:52.047Z,13.97
2019-05-02T00:21:58.367Z,13.93
2019-05-02T00:24:07.296Z,14.97
2019-05-02T00:26:14.581Z,13.23
2019-05-02T00:28:21.891Z,10.13
2019-05-02T00:30:30.009Z,11.60
2019-05-02T00:32:36.849Z,11.17
2019-05-02T00:34:43.737Z,11.73
2019-05-02T00:36:50.282Z,11.83
2019-05-02T00:38:57.040Z,11.30
2019-05-02T00:41:03.843Z,9.20
2019-05-02T00:43:11.776Z,12.63
2019-05-02T00:45:23.864Z,12.97
2019-05-02T00:47:30.211Z,13.93
2019-05-02T00:49:37.485Z,11.73
2019-05-02T00:51:46.345Z,15.07
2019-05-02T00:53:52.682Z,11.13
2019-05-02T00:56:00.042Z,13.83
2019-05-02T00:58:07.843Z,13.73
2019-05-02T01:00:18.427Z,13.77
2019-05-02T01:02:27.129Z,12.13
2019-05-02T01:04:35.819Z,13.17
2019-05-02T01:06:44.785Z,11.23
2019-05-02T01:08:52.448Z,10.77
2019-05-02T01:10:58.721Z,10.90
2019-05-02T01:13:05.477Z,8.30
2019-05-02T01:15:13.090Z,11.27
2019-05-02T01:17:20.773Z,9.03
2019-05-02T01:19:27.250Z,7.63
2019-05-02T01:21:33.989Z,9.47
2019-05-02T01:23:42.111Z,7.40
2019-05-02T01:25:52.742Z,7.53
2019-05-02T01:28:12.892Z,8.57
2019-05-02T01:30:41.829Z,8.77
2019-05-02T01:32:46.567Z,6.97
2019-05-02T01:34:56.382Z,8.80
2019-05-02T01:37:20.371Z,7.03
2019-05-02T01:39:21.426Z,7.10
2019-05-02T01:41:29.175Z,4.93
2019-05-02T01:43:36.123Z,6.70
2019-05-02T01:45:46.564Z,6.67
2019-05-02T01:47:50.689Z,6.90
2019-05-02T01:49:59.202Z,8.07
2019-05-02T01:52:05.642Z,6.33
2019-05-02T01:54:11.924Z,6.43
2019-05-02T01:56:18.676Z,6.23
2019-05-02T01:58:26.274Z,5.97
2019-05-02T02:00:34.559Z,6.47
2019-05-02T02:02:41.281Z,6.93
2019-05-02T02:04:52.161Z,6.37
2019-05-02T02:06:56.825Z,5.90
2019-05-02T02:09:08.441Z,6.70
2019-05-02T02:11:14.926Z,5.27
2019-05-02T02:13:21.799Z,7.00
2019-05-02T02:15:30.288Z,6.17
2019-05-02T02:17:36.875Z,6.73
2019-05-02T02:19:44.879Z,6.33
2019-05-02T02:21:51.501Z,6.23
2019-05-02T02:24:07.020Z,5.07
2019-05-02T02:26:15.861Z,5.10
2019-05-02T02:28:23.017Z,5.47
2019-05-02T02:30:30.086Z,4.73
2019-05-02T02:32:36.472Z,4.60
2019-05-02T02:34:43.124Z,4.90
2019-05-02T02:36:50.119Z,4.77
2019-05-02T02:38:57.502Z,5.07
2019-05-02T02:41:06.340Z,4.30
2019-05-02T02:43:32.380Z,4.53
2019-05-02T02:45:41.254Z,4.50
2019-05-02T02:47:53.046Z,4.10
2019-05-02T02:50:02.459Z,4.43
2019-05-02T02:52:06.941Z,4.47
2019-05-02T02:54:14.906Z,4.10
2019-05-02T02:56:21.666Z,3.93
2019-05-02T02:58:28.323Z,4.03
2019-05-02T03:00:35.205Z,4.60
2019-05-02T03:02:47.557Z,4.00
2019-05-02T03:04:49.906Z,4.30
2019-05-02T03:06:57.064Z,3.70
2019-05-02T03:09:03.427Z,5.40
2019-05-02T03:11:22.770Z,3.97
2019-05-02T03:13:24.248Z,3.67
2019-05-02T03:15:33.258Z,4.03
2019-05-02T03:17:40.414Z,4.23
2019-05-02T03:19:47.010Z,4.27
2019-05-02T03:22:01.091Z,4.13
2019-05-02T03:24:05.612Z,5.10
2019-05-02T03:26:15.250Z,5.83
2019-05-02T03:28:21.994Z,4.43
2019-05-02T03:30:35.865Z,4.87
2019-05-02T03:32:38.093Z,5.00
2019-05-02T03:34:48.174Z,4.30
2019-05-02T03:36:53.258Z,4.80
2019-05-02T03:39:00.454Z,4.83
2019-05-02T03:41:13.358Z,4.90
2019-05-02T03:43:19.244Z,5.83
2019-05-02T03:45:32.315Z,3.53
2019-05-02T03:47:37.134Z,5.37
2019-05-02T03:49:48.657Z,5.23
2019-05-02T03:51:56.118Z,5.73
2019-05-02T03:54:07.488Z,4.40
2019-05-02T03:56:12.086Z,4.70
2019-05-02T03:58:18.390Z,5.10
2019-05-02T04:00:24.879Z,4.70
2019-05-02T04:02:31.544Z,4.63
2019-05-02T04:04:40.968Z,4.77
2019-05-02T04:06:48.056Z,4.17
2019-05-02T04:08:59.847Z,5.80
2019-05-02T04:11:10.510Z,4.83
2019-05-02T04:13:17.500Z,5.17
2019-05-02T04:15:28.822Z,5.43
2019-05-02T04:17:35.782Z,4.97
2019-05-02T04:19:44.553Z,5.57
2019-05-02T04:21:54.727Z,4.97
2019-05-02T04:24:12.864Z,5.13
2019-05-02T04:26:12.860Z,4.73
2019-05-02T04:28:34.388Z,5.93
2019-05-02T04:30:54.268Z,5.87
2019-05-02T04:33:01.418Z,6.10
2019-05-02T04:35:08.102Z,5.97
2019-05-02T04:37:15.369Z,4.90
2019-05-02T04:39:22.179Z,5.80
2019-05-02T04:41:30.734Z,5.13
2019-05-02T04:43:43.078Z,6.03
2019-05-02T04:45:55.738Z,5.80
2019-05-02T04:47:58.467Z,5.90
2019-05-02T04:50:07.973Z,4.90
2019-05-02T04:52:12.252Z,5.80
2019-05-02T04:54:26.248Z,5.67
2019-05-02T04:56:28.337Z,6.27
2019-05-02T04:58:37.046Z,6.27
2019-05-02T05:00:45.137Z,4.97
2019-05-02T05:02:53.122Z,5.57
2019-05-02T05:04:58.716Z,5.13
2019-05-02T05:07:05.270Z,4.77
2019-05-02T05:09:14.849Z,6.27
2019-05-02T05:11:24.485Z,5.63
2019-05-02T05:13:29.088Z,5.57
2019-05-02T05:15:44.554Z,6.00
2019-05-02T05:17:43.524Z,4.80
2019-05-02T05:19:50.014Z,6.30
2019-05-02T05:22:04.346Z,5.87
2019-05-02T05:24:04.175Z,6.73
2019-05-02T05:26:12.033Z,6.30
2019-05-02T05:28:20.027Z,5.97
2019-05-02T05:30:27.735Z,5.57
2019-05-02T05:32:34.513Z,6.57
2019-05-02T05:34:41.170Z,5.60
2019-05-02T05:36:48.189Z,6.07
2019-05-02T05:38:54.734Z,6.37
2019-05-02T05:41:02.988Z,6.60
2019-05-02T05:43:14.569Z,5.50
2019-05-02T05:45:18.320Z,7.00
2019-05-02T05:47:24.832Z,7.30
2019-05-02T05:49:31.358Z,6.10
2019-05-02T05:51:37.622Z,7.23
2019-05-02T05:53:45.088Z,5.83
2019-05-02T05:55:53.514Z,4.37
2019-05-02T05:58:03.200Z,6.93
2019-05-02T06:00:15.927Z,5.97
2019-05-02T06:02:18.458Z,5.57
2019-05-02T06:04:30.263Z,5.47
2019-05-02T06:06:32.802Z,5.07
2019-05-02T06:08:39.762Z,5.27
2019-05-02T06:10:46.051Z,6.00
2019-05-02T06:12:52.603Z,4.10
2019-05-02T06:15:01.641Z,5.63
2019-05-02T06:17:06.852Z,6.27
2019-05-02T06:19:17.454Z,5.20
2019-05-02T06:21:21.235Z,5.40
2019-05-02T06:23:31.007Z,5.53
2019-05-02T06:25:36.774Z,5.60
2019-05-02T06:27:43.394Z,6.27
2019-05-02T06:29:51.255Z,6.13
2019-05-02T06:32:05.558Z,6.17
2019-05-02T06:34:12.939Z,5.90
2019-05-02T06:36:19.499Z,6.00
2019-05-02T06:38:26.069Z,5.97
2019-05-02T06:40:32.730Z,6.07
2019-05-02T06:42:39.316Z,6.40
2019-05-02T06:44:45.566Z,3.93
2019-05-02T06:46:52.136Z,6.40
2019-05-02T06:48:58.372Z,4.83
2019-05-02T06:51:10.941Z,3.77
2019-05-02T06:53:15.007Z,4.80
2019-05-02T06:55:21.478Z,5.13
2019-05-02T06:57:28.058Z,3.43
2019-05-02T06:59:34.395Z,4.20
2019-05-02T07:01:41.184Z,5.00
2019-05-02T07:03:47.858Z,4.97
2019-05-02T07:05:58.753Z,5.03
2019-05-02T07:08:06.617Z,5.40
2019-05-02T07:10:11.230Z,4.93
2019-05-02T07:12:17.682Z,5.43
2019-05-02T07:14:25.655Z,5.30
2019-05-02T07:16:38.933Z,5.50
2019-05-02T07:19:03.320Z,4.43
2019-05-02T07:21:12.207Z,5.30
2019-05-02T07:23:21.146Z,4.83
2019-05-02T07:25:27.711Z,4.33
2019-05-02T07:27:35.559Z,4.27
2019-05-02T07:29:42.089Z,4.53
2019-05-02T07:34:19.190Z,4.63
2019-05-02T07:36:25.764Z,4.77
2019-05-02T07:38:32.117Z,4.60
2019-05-02T07:40:53.065Z,3.57
2019-05-02T07:43:02.352Z,4.10
2019-05-02T07:45:10.745Z,3.60
2019-05-02T07:47:17.330Z,3.73
2019-05-02T07:49:31.633Z,4.73
2019-05-02T07:51:35.024Z,3.83
2019-05-02T07:53:44.432Z,3.63
2019-05-02T07:55:49.302Z,3.83
2019-05-02T07:57:56.251Z,3.87
2019-05-02T08:00:02.648Z,4.23
2019-05-02T08:02:08.452Z,3.50
2019-05-02T08:04:13.797Z,4.40
2019-05-02T08:06:19.148Z,4.53
2019-05-02T08:08:25.126Z,4.37
2019-05-02T08:10:31.793Z,3.17
2019-05-02T08:12:37.522Z,4.10
2019-05-02T08:14:42.819Z,3.93
2019-05-02T08:16:48.397Z,4.10
2019-05-02T08:18:53.824Z,4.60
2019-05-02T08:20:59.657Z,4.10
2019-05-02T08:23:06.132Z,3.97
2019-05-02T08:25:12.213Z,4.87
2019-05-02T08:27:23.044Z,3.77
2019-05-02T08:29:28.733Z,4.47
2019-05-02T08:31:34.775Z,4.50
2019-05-02T08:33:40.109Z,3.40
2019-05-02T08:35:45.460Z,3.53
2019-05-02T08:37:50.769Z,3.60
2019-05-02T08:39:56.125Z,3.17
2019-05-02T08:42:02.170Z,3.93
2019-05-02T08:44:07.820Z,3.93
2019-05-02T08:46:14.563Z,3.60
2019-05-02T08:48:22.715Z,3.47
2019-05-02T08:50:31.816Z,3.53
2019-05-02T08:52:36.828Z,3.93
2019-05-02T08:54:42.093Z,3.00
2019-05-02T08:56:47.529Z,4.07
2019-05-02T08:58:52.869Z,3.07
2019-05-02T09:00:58.312Z,2.67
2019-05-02T09:03:04.753Z,3.20
2019-05-02T09:05:11.248Z,2.97
2019-05-02T09:07:16.821Z,3.30
2019-05-02T09:09:22.743Z,3.90
2019-05-02T09:11:29.412Z,3.50
2019-05-02T09:15:54.290Z,3.13
2019-05-02T09:17:59.763Z,3.97
2019-05-02T09:20:14.967Z,4.07
2019-05-02T09:22:16.779Z,2.43
2019-05-02T09:24:23.971Z,3.30
2019-05-02T09:26:36.156Z,2.90
2019-05-02T09:28:36.493Z,2.90
2019-05-02T09:30:42.025Z,3.57
2019-05-02T09:32:47.571Z,3.63
2019-05-02T09:34:56.586Z,3.67
2019-05-02T09:37:02.586Z,2.97
2019-05-02T09:39:09.050Z,2.77
2019-05-02T09:41:19.056Z,3.47
2019-05-02T09:43:22.835Z,4.00
2019-05-02T09:45:35.463Z,3.53
2019-05-02T09:47:52.761Z,3.27
2019-05-02T09:49:49.104Z,4.10
2019-05-02T09:51:59.315Z,3.67
2019-05-02T09:54:02.730Z,4.40
2019-05-02T09:56:32.404Z,3.57
2019-05-02T10:04:11.980Z,4.43
2019-05-02T10:06:18.768Z,3.73
2019-05-02T10:08:25.720Z,3.97
2019-05-02T10:10:37.041Z,3.30
2019-05-02T10:12:42.838Z,3.20
2019-05-02T10:14:52.629Z,3.67
2019-05-02T10:17:03.066Z,3.07
2019-05-02T10:19:10.765Z,4.50
2019-05-02T10:21:17.130Z,2.93
2019-05-02T10:23:23.626Z,3.90
2019-05-02T10:25:38.319Z,3.60
2019-05-02T10:27:42.902Z,4.93
2019-05-02T10:29:46.563Z,4.10
2019-05-02T10:31:52.925Z,4.67
2019-05-02T10:33:59.298Z,4.00
2019-05-02T10:36:05.906Z,4.50
2019-05-02T10:38:17.979Z,3.57
2019-05-02T10:40:22.488Z,6.33
2019-05-02T10:42:29.137Z,5.00
2019-05-02T10:44:36.613Z,6.43
2019-05-02T10:46:57.055Z,5.67
2019-05-02T10:49:12.475Z,17.03
2019-05-02T10:51:41.834Z,5.53
2019-05-02T10:53:47.095Z,4.57
2019-05-02T10:55:57.033Z,5.93
2019-05-02T10:58:04.626Z,5.37
2019-05-02T11:00:18.556Z,5.33
2019-05-02T11:02:25.944Z,5.40
2019-05-02T11:04:35.761Z,5.27
2019-05-02T11:06:46.253Z,5.13
2019-05-02T11:08:54.450Z,4.63
2019-05-02T11:11:05.731Z,4.40
2019-05-02T11:13:12.473Z,4.30
2019-05-02T11:15:26.553Z,3.83
2019-05-02T11:17:37.350Z,3.90
2019-05-02T11:19:46.526Z,4.17
2019-05-02T11:21:58.748Z,4.43
2019-05-02T11:24:02.655Z,4.90
2019-05-02T11:26:14.485Z,4.00
2019-05-02T11:28:18.593Z,4.20
2019-05-02T11:30:26.627Z,3.73
2019-05-02T11:32:33.069Z,5.30
2019-05-02T11:34:42.056Z,5.47
2019-05-02T11:36:48.462Z,4.73
2019-05-02T11:39:04.014Z,4.47
2019-05-02T11:41:03.026Z,4.20
2019-05-02T11:43:09.389Z,5.53
2019-05-02T11:45:16.772Z,5.17
2019-05-02T11:47:26.561Z,4.23
2019-05-02T11:49:32.012Z,3.73
2019-05-02T11:51:39.058Z,4.73
2019-05-02T11:53:45.391Z,5.00
2019-05-02T11:55:53.171Z,5.03
2019-05-02T11:58:00.809Z,4.97
2019-05-02T12:00:12.235Z,4.03
2019-05-02T12:02:32.023Z,5.07
2019-05-02T12:04:38.742Z,4.57
2019-05-02T12:06:49.247Z,4.37
2019-05-02T12:08:53.572Z,3.90
2019-05-02T12:11:01.962Z,4.97
2019-05-02T12:13:11.951Z,3.60
2019-05-02T12:15:17.183Z,3.83
2019-05-02T12:17:23.517Z,4.10
2019-05-02T12:19:32.131Z,4.23
2019-05-02T12:21:39.314Z,4.20
2019-05-02T12:23:46.109Z,4.73
2019-05-02T12:25:54.572Z,3.70
2019-05-02T12:28:02.284Z,4.73
2019-05-02T12:30:09.194Z,4.53
2019-05-02T12:32:16.090Z,5.73
2019-05-02T12:34:22.857Z,5.73
2019-05-02T12:36:33.103Z,4.07
2019-05-02T12:38:39.068Z,5.67
2019-05-02T12:40:45.737Z,4.73
2019-05-02T12:42:52.639Z,5.47
2019-05-02T12:44:59.693Z,5.13
2019-05-02T12:47:06.730Z,5.23
2019-05-02T12:49:24.802Z,5.30
2019-05-02T12:51:22.554Z,3.83
2019-05-02T12:53:29.329Z,4.53
2019-05-02T12:55:35.895Z,4.80
2019-05-02T12:57:42.887Z,6.20
2019-05-02T12:59:50.053Z,5.63
2019-05-02T13:01:58.270Z,5.33
2019-05-02T13:04:13.033Z,5.50
2019-05-02T13:06:21.825Z,5.30
2019-05-02T13:08:28.810Z,5.03
2019-05-02T13:10:42.335Z,5.03
2019-05-02T13:12:49.553Z,5.90
2019-05-02T13:14:56.142Z,4.00
2019-05-02T13:17:05.748Z,6.03
2019-05-02T13:19:13.251Z,5.20
2019-05-02T13:21:23.515Z,5.53
2019-05-02T13:23:35.443Z,4.63
2019-05-02T13:25:38.468Z,4.90
2019-05-02T13:27:48.089Z,6.00
2019-05-02T13:29:53.836Z,5.50
2019-05-02T13:32:18.964Z,5.37
2019-05-02T13:34:32.892Z,5.30
2019-05-02T13:36:47.440Z,5.20
2019-05-02T13:38:54.003Z,5.00
2019-05-02T13:41:02.602Z,5.40
2019-05-02T13:43:09.464Z,4.57
2019-05-02T13:45:28.761Z,5.80
2019-05-02T13:47:35.242Z,5.17
2019-05-02T13:49:53.686Z,4.97
2019-05-02T13:51:51.973Z,4.80
2019-05-02T13:59:02.689Z,4.63
2019-05-02T14:01:11.661Z,5.40
2019-05-02T14:03:19.568Z,4.77
2019-05-02T14:05:29.037Z,5.50
2019-05-02T14:07:35.676Z,6.30
2019-05-02T14:09:44.067Z,5.80
2019-05-02T14:12:08.268Z,5.33
2019-05-02T14:14:14.749Z,5.43
2019-05-02T14:16:22.136Z,5.80
2019-05-02T14:18:30.981Z,5.13
2019-05-02T14:20:37.949Z,4.93
2019-05-02T14:22:44.385Z,4.80
2019-05-02T14:24:52.966Z,5.57
2019-05-02T14:27:02.686Z,5.07
2019-05-02T14:29:14.567Z,4.27
2019-05-02T14:31:17.004Z,5.20
2019-05-02T14:33:24.891Z,4.93
2019-05-02T14:35:38.998Z,5.40
2019-05-02T14:37:45.403Z,4.43
2019-05-02T14:39:54.236Z,4.57
2019-05-02T14:42:02.100Z,5.07
2019-05-02T14:44:08.674Z,4.43
2019-05-02T14:46:17.827Z,5.13
2019-05-02T14:48:27.679Z,5.17
2019-05-02T14:50:36.564Z,8.07
2019-05-02T14:52:45.638Z,7.13
2019-05-02T14:54:51.876Z,8.33
2019-05-02T14:57:01.837Z,5.40
2019-05-02T14:59:09.331Z,6.43
2019-05-02T15:01:17.153Z,5.33
2019-05-02T15:03:28.341Z,5.00
2019-05-02T15:05:33.214Z,5.97
2019-05-02T15:07:39.882Z,4.33
2019-05-02T15:09:47.892Z,6.20
2019-05-02T15:12:03.089Z,4.77
2019-05-02T15:14:11.365Z,5.00
2019-05-02T15:16:19.490Z,5.50
2019-05-02T15:18:26.965Z,5.47
2019-05-02T15:20:39.187Z,5.60
2019-05-02T15:22:42.482Z,5.63
2019-05-02T15:24:50.145Z,5.27
2019-05-02T15:26:56.699Z,5.80
2019-05-02T15:29:06.437Z,5.83
2019-05-02T15:31:23.084Z,6.50
2019-05-02T15:33:26.839Z,6.67
2019-05-02T15:35:52.827Z,6.17
2019-05-02T15:38:02.512Z,5.13
2019-05-02T15:42:22.866Z,5.90
2019-05-02T15:44:31.697Z,5.60
2019-05-02T15:46:40.124Z,5.33
2019-05-02T15:48:46.106Z,6.03
2019-05-02T15:50:55.264Z,5.53
2019-05-02T15:53:19.819Z,5.47
2019-05-02T15:55:26.470Z,6.90
2019-05-02T15:57:41.643Z,6.47
2019-05-02T15:59:45.807Z,4.73
2019-05-02T16:01:52.484Z,6.13
2019-05-02T16:04:01.744Z,5.93
2019-05-02T16:06:08.763Z,6.63
2019-05-02T16:08:15.309Z,6.40
2019-05-02T16:10:22.916Z,6.20
2019-05-02T16:12:31.954Z,6.37
2019-05-02T16:14:37.171Z,6.30
2019-05-02T16:16:45.684Z,6.30
2019-05-02T16:18:53.691Z,5.87
2019-05-02T16:21:06.908Z,6.17
2019-05-02T16:23:09.703Z,6.57
2019-05-02T16:25:20.024Z,5.53
2019-05-02T16:27:44.118Z,5.40
2019-05-02T16:29:50.782Z,5.13
2019-05-02T16:32:06.875Z,5.90
2019-05-02T16:34:15.037Z,6.27
2019-05-02T16:36:25.972Z,6.57
2019-05-02T16:38:32.354Z,7.00
2019-05-02T16:40:37.757Z,6.20
2019-05-02T16:42:44.020Z,7.57
2019-05-02T16:44:52.312Z,5.83
2019-05-02T16:46:58.372Z,6.20
2019-05-02T16:49:08.907Z,6.93
2019-05-02T16:51:29.898Z,6.60
2019-05-02T16:53:26.024Z,6.80
2019-05-02T16:55:32.555Z,7.20
2019-05-02T16:57:39.660Z,6.43
2019-05-02T16:59:46.189Z,7.80
2019-05-02T17:01:54.593Z,8.17
2019-05-02T17:04:03.119Z,7.47
2019-05-02T17:06:10.180Z,7.83
2019-05-02T17:08:19.829Z,7.07
2019-05-02T17:10:29.340Z,7.07
2019-05-02T17:12:35.826Z,7.77
2019-05-02T17:14:51.611Z,6.93
2019-05-02T17:16:55.888Z,14.03
2019-05-02T17:19:01.683Z,8.77
2019-05-02T17:21:08.552Z,12.60
2019-05-02T17:23:16.430Z,8.07
2019-05-02T17:25:22.941Z,8.80
2019-05-02T17:27:32.338Z,8.73
2019-05-02T17:29:37.489Z,12.40
2019-05-02T17:31:44.557Z,12.20
2019-05-02T17:33:52.938Z,24.20
2019-05-02T17:36:02.155Z,10.13
2019-05-02T17:38:08.556Z,7.93
2019-05-02T17:40:16.994Z,12.20
2019-05-02T17:42:25.754Z,8.07
2019-05-02T17:44:32.838Z,18.13
2019-05-02T17:46:42.861Z,43.60
2019-05-02T17:48:52.840Z,19.23
2019-05-02T17:51:15.556Z,11.57
2019-05-02T17:53:22.537Z,9.77
2019-05-02T17:55:32.738Z,10.00
2019-05-02T17:57:38.627Z,9.37
2019-05-02T17:59:45.388Z,12.53
2019-05-02T18:01:52.545Z,13.73
2019-05-02T18:04:01.991Z,10.20
2019-05-02T18:06:13.202Z,11.77
2019-05-02T18:08:18.715Z,9.33
2019-05-02T18:10:26.093Z,10.33
2019-05-02T18:12:32.944Z,10.40
2019-05-02T18:14:39.598Z,9.83
2019-05-02T18:16:51.921Z,8.67
2019-05-02T18:18:57.263Z,9.67
2019-05-02T18:21:04.080Z,10.23
2019-05-02T18:23:12.210Z,9.43
2019-05-02T18:25:23.584Z,9.60
2019-05-02T18:27:28.378Z,9.77
2019-05-02T18:29:36.380Z,9.67
2019-05-02T18:31:47.398Z,9.57
2019-05-02T18:33:53.623Z,10.07
2019-05-02T18:36:01.957Z,8.67
2019-05-02T18:38:09.183Z,9.70
2019-05-02T18:40:20.122Z,9.60
2019-05-02T18:42:27.183Z,8.10
2019-05-02T18:44:34.269Z,9.17
2019-05-02T18:46:42.911Z,8.33
2019-05-02T18:48:51.858Z,9.77
2019-05-02T18:50:59.299Z,10.30
2019-05-02T18:53:09.116Z,8.77
2019-05-02T18:55:17.173Z,7.87
2019-05-02T18:57:26.075Z,8.77
2019-05-02T18:59:33.007Z,9.83
2019-05-02T19:01:42.721Z,8.60
2019-05-02T19:03:54.326Z,9.43
2019-05-02T19:05:59.589Z,8.47
2019-05-02T19:08:06.643Z,8.03
2019-05-02T19:10:14.919Z,9.17
2019-05-02T19:12:25.795Z,8.23
2019-05-02T19:14:30.064Z,7.93
2019-05-02T19:16:38.792Z,9.90
2019-05-02T19:21:03.029Z,8.20
2019-05-02T19:23:12.323Z,7.67
2019-05-02T19:25:18.819Z,8.53
2019-05-02T19:27:43.868Z,7.43
2019-05-02T19:29:52.504Z,6.63
2019-05-02T19:32:01.652Z,8.23
2019-05-02T19:34:08.338Z,7.70
2019-05-02T19:36:24.222Z,8.30
2019-05-02T19:38:26.409Z,8.63
2019-05-02T19:40:33.387Z,7.20
2019-05-02T19:42:42.418Z,9.27
2019-05-02T19:44:50.162Z,8.73
2019-05-02T19:46:57.091Z,9.03
2019-05-02T19:49:06.900Z,8.80
2019-05-02T19:51:18.541Z,7.70
2019-05-02T19:53:25.908Z,8.37
2019-05-02T19:55:33.147Z,8.03
2019-05-02T19:57:43.152Z,8.80
2019-05-02T19:59:49.502Z,7.50
2019-05-02T20:02:02.581Z,7.77
2019-05-02T20:04:11.803Z,7.53
2019-05-02T20:06:18.815Z,7.20
2019-05-02T20:08:27.260Z,7.27
2019-05-02T20:10:34.185Z,7.17
2019-05-02T20:12:48.400Z,8.47
2019-05-02T20:14:50.263Z,7.73
2019-05-02T20:17:02.066Z,7.37
2019-05-02T20:19:08.889Z,9.07
2019-05-02T20:21:25.912Z,8.77
2019-05-02T20:23:31.849Z,8.87
2019-05-02T20:25:39.132Z,8.90
2019-05-02T20:27:43.782Z,8.13
2019-05-02T20:29:52.177Z,7.77
2019-05-02T20:31:59.044Z,8.17
2019-05-02T20:34:05.852Z,8.97
2019-05-02T20:36:12.625Z,9.37
2019-05-02T20:38:21.907Z,8.03
2019-05-02T20:40:33.433Z,8.57
2019-05-02T20:42:41.907Z,7.03
2019-05-02T20:44:48.271Z,9.17
2019-05-02T20:46:55.232Z,8.80
2019-05-02T20:49:02.040Z,8.03
2019-05-02T20:51:08.576Z,7.57
2019-05-02T20:53:27.766Z,7.83
2019-05-02T20:55:22.954Z,8.50
2019-05-02T20:57:31.771Z,9.23
2019-05-02T20:59:38.216Z,7.37
2019-05-02T21:01:44.586Z,6.90
2019-05-02T21:03:52.142Z,6.97
2019-05-02T21:06:06.517Z,6.20
2019-05-02T21:08:25.279Z,7.17
2019-05-02T21:10:33.480Z,7.80
2019-05-02T21:12:41.927Z,8.50
2019-05-02T21:14:48.681Z,8.67
2019-05-02T21:16:56.498Z,8.37
2019-05-02T21:19:03.146Z,8.43
2019-05-02T21:21:09.478Z,8.70
2019-05-02T21:23:15.856Z,7.77
2019-05-02T21:25:23.301Z,7.30
2019-05-02T21:27:32.427Z,8.60
2019-05-02T21:29:38.831Z,8.30
2019-05-02T21:31:45.310Z,7.60
2019-05-02T21:33:52.016Z,8.67
2019-05-02T21:35:58.339Z,8.43
2019-05-02T21:38:04.595Z,7.93
2019-05-02T21:40:11.805Z,8.30
2019-05-02T21:42:18.544Z,9.17
2019-05-02T21:44:25.128Z,9.17
2019-05-02T21:46:31.859Z,8.20
2019-05-02T21:48:41.823Z,9.33
2019-05-02T21:50:49.239Z,7.73
2019-05-02T21:53:09.377Z,8.70
2019-05-02T21:55:21.771Z,9.27
2019-05-02T21:57:28.184Z,9.47
2019-05-02T21:59:34.544Z,9.83
2019-05-02T22:01:51.938Z,8.13
2019-05-02T22:04:02.268Z,10.20
2019-05-02T22:06:08.790Z,8.70
2019-05-02T22:08:15.147Z,9.40
2019-05-02T22:10:22.729Z,9.27
2019-05-02T22:12:31.752Z,8.97
2019-05-02T22:14:38.230Z,9.63
2019-05-02T22:16:44.484Z,7.97
2019-05-02T22:18:52.147Z,8.30
2019-05-02T22:20:58.530Z,9.70
2019-05-02T22:23:05.501Z,9.37
2019-05-02T22:25:11.776Z,10.80
2019-05-02T22:27:18.243Z,9.10
2019-05-02T22:29:24.601Z,9.20
2019-05-02T22:31:32.327Z,11.37
2019-05-02T22:33:39.485Z,9.63
2019-05-02T22:35:45.869Z,9.43
2019-05-02T22:37:53.727Z,10.90
2019-05-02T22:40:03.735Z,9.33
2019-05-02T22:42:09.874Z,11.33
2019-05-02T22:44:16.416Z,10.67
2019-05-02T22:46:24.529Z,10.20
2019-05-02T22:48:31.862Z,11.80
2019-05-02T22:50:41.780Z,10.30
2019-05-02T22:52:47.946Z,11.47
2019-05-02T22:54:54.268Z,9.53
2019-05-02T22:57:02.447Z,9.13
2019-05-02T22:59:10.365Z,10.10
2019-05-02T23:01:16.850Z,11.23
2019-05-02T23:03:24.202Z,11.07
2019-05-02T23:05:34.363Z,11.53
2019-05-02T23:07:41.897Z,9.33
2019-05-02T23:09:48.226Z,9.63
2019-05-02T23:11:54.479Z,10.40
2019-05-02T23:14:01.743Z,10.77
2019-05-02T23:16:08.531Z,9.13
2019-05-02T23:18:14.910Z,10.43
2019-05-02T23:20:21.791Z,10.60
2019-05-02T23:22:32.258Z,8.87
2019-05-02T23:24:57.139Z,8.83
2019-05-02T23:27:08.119Z,5.57
2019-05-02T23:29:16.011Z,3.90
2019-05-02T23:31:22.664Z,2.70
2019-05-02T23:33:49.009Z,2.80
2019-05-02T23:35:55.262Z,2.60
2019-05-02T23:38:02.159Z,1.73
2019-05-02T23:40:09.659Z,2.00
2019-05-02T23:42:16.112Z,1.30
2019-05-02T23:44:22.885Z,1.70
2019-05-02T23:46:29.216Z,1.20
2019-05-02T23:48:35.587Z,1.50
2019-05-02T23:50:41.841Z,1.30
2019-05-02T23:52:48.212Z,0.87
2019-05-02T23:54:54.463Z,1.00
2019-05-02T23:57:00.724Z,1.50
2019-05-02T23:59:07.312Z,1.33
